sensor_id;sensor_type;location;lat;lon;timestamp;P1;durP1;ratioP1;P2;durP2;ratioP2
7471;SDS011;3777;48.722;8.110;2024-01-30T00:00:06;20.57;;;17.03;;
7471;SDS011;3777;48.722;8.110;2024-01-30T00:02:34;20.43;;;16.83;;
7471;SDS011;3777;48.722;8.110;2024-01-30T00:05:03;21.37;;;17.40;;
7471;SDS011;3777;48.722;8.110;2024-01-30T00:07:30;22.57;;;17.60;;
7471;SDS011;3777;48.722;8.110;2024-01-30T00:09:57;21.40;;;17.67;;
7471;SDS011;3777;48.722;8.110;2024-01-30T00:12:24;21.77;;;17.30;;
7471;SDS011;3777;48.722;8.110;2024-01-30T00:14:51;22.97;;;18.00;;
7471;SDS011;3777;48.722;8.110;2024-01-30T00:17:18;20.67;;;18.20;;
7471;SDS011;3777;48.722;8.110;2024-01-30T00:19:45;22.47;;;17.47;;
7471;SDS011;3777;48.722;8.110;2024-01-30T00:22:14;21.50;;;18.03;;
7471;SDS011;3777;48.722;8.110;2024-01-30T00:24:41;22.37;;;18.20;;
7471;SDS011;3777;48.722;8.110;2024-01-30T00:27:08;23.03;;;17.57;;
7471;SDS011;3777;48.722;8.110;2024-01-30T00:29:35;21.87;;;17.87;;
7471;SDS011;3777;48.722;8.110;2024-01-30T00:32:02;26.53;;;19.03;;
7471;SDS011;3777;48.722;8.110;2024-01-30T00:34:29;24.10;;;18.97;;
7471;SDS011;3777;48.722;8.110;2024-01-30T00:36:56;22.63;;;18.80;;
7471;SDS011;3777;48.722;8.110;2024-01-30T00:39:24;26.63;;;20.93;;
7471;SDS011;3777;48.722;8.110;2024-01-30T00:41:51;28.30;;;19.77;;
7471;SDS011;3777;48.722;8.110;2024-01-30T00:44:18;24.43;;;19.53;;
7471;SDS011;3777;48.722;8.110;2024-01-30T00:46:45;23.53;;;19.50;;
7471;SDS011;3777;48.722;8.110;2024-01-30T00:49:12;23.97;;;18.87;;
7471;SDS011;3777;48.722;8.110;2024-01-30T00:51:39;23.03;;;18.17;;
7471;SDS011;3777;48.722;8.110;2024-01-30T00:54:06;24.20;;;18.93;;
7471;SDS011;3777;48.722;8.110;2024-01-30T00:56:34;27.13;;;18.93;;
7471;SDS011;3777;48.722;8.110;2024-01-30T00:59:01;25.90;;;20.20;;
7471;SDS011;3777;48.722;8.110;2024-01-30T01:01:28;25.67;;;19.90;;
7471;SDS011;3777;48.722;8.110;2024-01-30T01:03:55;25.43;;;19.97;;
7471;SDS011;3777;48.722;8.110;2024-01-30T01:06:23;29.40;;;20.90;;
7471;SDS011;3777;48.722;8.110;2024-01-30T01:08:50;26.57;;;19.93;;
7471;SDS011;3777;48.722;8.110;2024-01-30T01:11:17;26.43;;;20.40;;
7471;SDS011;3777;48.722;8.110;2024-01-30T01:13:45;26.33;;;19.50;;
7471;SDS011;3777;48.722;8.110;2024-01-30T01:16:12;26.23;;;20.23;;
7471;SDS011;3777;48.722;8.110;2024-01-30T01:18:39;24.20;;;20.00;;
7471;SDS011;3777;48.722;8.110;2024-01-30T01:21:06;26.83;;;20.30;;
7471;SDS011;3777;48.722;8.110;2024-01-30T01:23:33;22.87;;;18.27;;
7471;SDS011;3777;48.722;8.110;2024-01-30T01:26:00;24.43;;;20.10;;
7471;SDS011;3777;48.722;8.110;2024-01-30T01:28:27;24.87;;;19.47;;
7471;SDS011;3777;48.722;8.110;2024-01-30T01:30:55;26.17;;;19.43;;
7471;SDS011;3777;48.722;8.110;2024-01-30T01:33:30;26.43;;;19.83;;
7471;SDS011;3777;48.722;8.110;2024-01-30T01:35:58;24.37;;;18.80;;
7471;SDS011;3777;48.722;8.110;2024-01-30T01:38:27;25.30;;;20.10;;
7471;SDS011;3777;48.722;8.110;2024-01-30T01:40:54;25.43;;;20.27;;
7471;SDS011;3777;48.722;8.110;2024-01-30T01:43:21;25.60;;;20.07;;
7471;SDS011;3777;48.722;8.110;2024-01-30T01:45:48;23.60;;;19.03;;
7471;SDS011;3777;48.722;8.110;2024-01-30T01:48:16;26.90;;;20.33;;
7471;SDS011;3777;48.722;8.110;2024-01-30T01:50:43;26.63;;;19.70;;
7471;SDS011;3777;48.722;8.110;2024-01-30T01:53:10;27.20;;;20.93;;
7471;SDS011;3777;48.722;8.110;2024-01-30T01:55:39;24.63;;;19.00;;
7471;SDS011;3777;48.722;8.110;2024-01-30T01:58:06;33.37;;;20.53;;
7471;SDS011;3777;48.722;8.110;2024-01-30T02:00:35;29.07;;;20.67;;
7471;SDS011;3777;48.722;8.110;2024-01-30T02:03:04;25.30;;;19.93;;
7471;SDS011;3777;48.722;8.110;2024-01-30T02:05:34;23.43;;;18.80;;
7471;SDS011;3777;48.722;8.110;2024-01-30T02:08:02;26.97;;;19.53;;
7471;SDS011;3777;48.722;8.110;2024-01-30T02:10:30;25.87;;;20.10;;
7471;SDS011;3777;48.722;8.110;2024-01-30T02:12:57;25.67;;;18.63;;
7471;SDS011;3777;48.722;8.110;2024-01-30T02:15:24;25.80;;;19.63;;
7471;SDS011;3777;48.722;8.110;2024-01-30T02:17:51;28.43;;;21.10;;
7471;SDS011;3777;48.722;8.110;2024-01-30T02:20:18;25.97;;;18.93;;
7471;SDS011;3777;48.722;8.110;2024-01-30T02:22:46;26.33;;;20.47;;
7471;SDS011;3777;48.722;8.110;2024-01-30T02:25:14;27.90;;;19.77;;
7471;SDS011;3777;48.722;8.110;2024-01-30T02:27:41;26.63;;;20.40;;
7471;SDS011;3777;48.722;8.110;2024-01-30T02:30:08;26.60;;;18.80;;
7471;SDS011;3777;48.722;8.110;2024-01-30T02:32:36;26.70;;;19.83;;
7471;SDS011;3777;48.722;8.110;2024-01-30T02:35:03;24.10;;;19.67;;
7471;SDS011;3777;48.722;8.110;2024-01-30T02:37:30;25.47;;;19.10;;
7471;SDS011;3777;48.722;8.110;2024-01-30T02:39:59;23.40;;;19.00;;
7471;SDS011;3777;48.722;8.110;2024-01-30T02:42:26;19.30;;;17.00;;
7471;SDS011;3777;48.722;8.110;2024-01-30T02:44:53;23.00;;;18.20;;
7471;SDS011;3777;48.722;8.110;2024-01-30T02:47:20;24.30;;;17.57;;
7471;SDS011;3777;48.722;8.110;2024-01-30T02:49:46;25.27;;;19.03;;
7471;SDS011;3777;48.722;8.110;2024-01-30T02:52:13;24.87;;;19.33;;
7471;SDS011;3777;48.722;8.110;2024-01-30T02:54:40;23.83;;;19.17;;
7471;SDS011;3777;48.722;8.110;2024-01-30T02:57:09;22.63;;;18.90;;
7471;SDS011;3777;48.722;8.110;2024-01-30T02:59:36;23.00;;;19.03;;
7471;SDS011;3777;48.722;8.110;2024-01-30T03:02:03;25.93;;;19.10;;
7471;SDS011;3777;48.722;8.110;2024-01-30T03:04:30;21.53;;;18.37;;
7471;SDS011;3777;48.722;8.110;2024-01-30T03:06:57;24.47;;;18.53;;
7471;SDS011;3777;48.722;8.110;2024-01-30T03:09:24;22.87;;;18.20;;
7471;SDS011;3777;48.722;8.110;2024-01-30T03:11:51;25.93;;;19.87;;
7471;SDS011;3777;48.722;8.110;2024-01-30T03:14:19;22.37;;;17.80;;
7471;SDS011;3777;48.722;8.110;2024-01-30T03:16:46;23.17;;;18.77;;
7471;SDS011;3777;48.722;8.110;2024-01-30T03:19:13;24.73;;;18.10;;
7471;SDS011;3777;48.722;8.110;2024-01-30T03:21:40;23.27;;;18.90;;
7471;SDS011;3777;48.722;8.110;2024-01-30T03:24:07;24.13;;;17.93;;
7471;SDS011;3777;48.722;8.110;2024-01-30T03:26:34;24.97;;;19.63;;
7471;SDS011;3777;48.722;8.110;2024-01-30T03:29:01;23.70;;;17.37;;
7471;SDS011;3777;48.722;8.110;2024-01-30T03:31:32;23.67;;;18.57;;
7471;SDS011;3777;48.722;8.110;2024-01-30T03:33:59;22.63;;;18.00;;
7471;SDS011;3777;48.722;8.110;2024-01-30T03:36:27;23.43;;;18.20;;
7471;SDS011;3777;48.722;8.110;2024-01-30T03:38:57;23.50;;;18.27;;
7471;SDS011;3777;48.722;8.110;2024-01-30T03:41:24;21.43;;;17.10;;
7471;SDS011;3777;48.722;8.110;2024-01-30T03:43:51;26.67;;;18.10;;
7471;SDS011;3777;48.722;8.110;2024-01-30T03:46:18;22.50;;;17.27;;
7471;SDS011;3777;48.722;8.110;2024-01-30T03:48:47;20.80;;;16.70;;
7471;SDS011;3777;48.722;8.110;2024-01-30T03:51:14;20.70;;;17.57;;
7471;SDS011;3777;48.722;8.110;2024-01-30T03:53:41;20.37;;;16.10;;
7471;SDS011;3777;48.722;8.110;2024-01-30T03:56:08;19.60;;;16.57;;
7471;SDS011;3777;48.722;8.110;2024-01-30T03:58:35;23.40;;;17.60;;
7471;SDS011;3777;48.722;8.110;2024-01-30T04:01:02;22.00;;;17.10;;
7471;SDS011;3777;48.722;8.110;2024-01-30T04:03:30;20.33;;;16.90;;
7471;SDS011;3777;48.722;8.110;2024-01-30T04:05:58;23.40;;;17.27;;
7471;SDS011;3777;48.722;8.110;2024-01-30T04:08:25;20.33;;;16.37;;
7471;SDS011;3777;48.722;8.110;2024-01-30T04:10:52;22.97;;;17.40;;
7471;SDS011;3777;48.722;8.110;2024-01-30T04:13:19;19.67;;;15.87;;
7471;SDS011;3777;48.722;8.110;2024-01-30T04:15:46;19.37;;;16.17;;
7471;SDS011;3777;48.722;8.110;2024-01-30T04:18:13;23.23;;;16.83;;
7471;SDS011;3777;48.722;8.110;2024-01-30T04:20:40;23.27;;;16.93;;
7471;SDS011;3777;48.722;8.110;2024-01-30T04:23:08;24.93;;;17.40;;
7471;SDS011;3777;48.722;8.110;2024-01-30T04:25:35;20.10;;;15.17;;
7471;SDS011;3777;48.722;8.110;2024-01-30T04:28:02;20.27;;;16.40;;
7471;SDS011;3777;48.722;8.110;2024-01-30T04:30:30;20.80;;;16.87;;
7471;SDS011;3777;48.722;8.110;2024-01-30T04:32:57;20.10;;;15.70;;
7471;SDS011;3777;48.722;8.110;2024-01-30T04:35:23;20.23;;;16.57;;
7471;SDS011;3777;48.722;8.110;2024-01-30T04:37:51;21.53;;;16.10;;
7471;SDS011;3777;48.722;8.110;2024-01-30T04:40:20;21.57;;;16.20;;
7471;SDS011;3777;48.722;8.110;2024-01-30T04:42:47;21.17;;;15.63;;
7471;SDS011;3777;48.722;8.110;2024-01-30T04:45:14;20.93;;;14.73;;
7471;SDS011;3777;48.722;8.110;2024-01-30T04:47:41;19.27;;;15.07;;
7471;SDS011;3777;48.722;8.110;2024-01-30T04:50:09;19.73;;;14.63;;
7471;SDS011;3777;48.722;8.110;2024-01-30T04:52:36;17.70;;;14.30;;
7471;SDS011;3777;48.722;8.110;2024-01-30T04:55:03;16.40;;;13.40;;
7471;SDS011;3777;48.722;8.110;2024-01-30T04:57:32;18.27;;;14.00;;
7471;SDS011;3777;48.722;8.110;2024-01-30T04:59:59;16.70;;;14.17;;
7471;SDS011;3777;48.722;8.110;2024-01-30T05:02:27;18.77;;;13.97;;
7471;SDS011;3777;48.722;8.110;2024-01-30T05:04:54;19.67;;;14.17;;
7471;SDS011;3777;48.722;8.110;2024-01-30T05:07:21;16.53;;;13.33;;
7471;SDS011;3777;48.722;8.110;2024-01-30T05:09:48;18.30;;;13.70;;
7471;SDS011;3777;48.722;8.110;2024-01-30T05:12:15;20.93;;;14.50;;
7471;SDS011;3777;48.722;8.110;2024-01-30T05:14:43;16.27;;;13.23;;
7471;SDS011;3777;48.722;8.110;2024-01-30T05:17:10;17.10;;;14.20;;
7471;SDS011;3777;48.722;8.110;2024-01-30T05:19:38;14.93;;;12.47;;
7471;SDS011;3777;48.722;8.110;2024-01-30T05:22:05;18.53;;;13.90;;
7471;SDS011;3777;48.722;8.110;2024-01-30T05:24:32;17.53;;;12.93;;
7471;SDS011;3777;48.722;8.110;2024-01-30T05:27:00;15.57;;;12.47;;
7471;SDS011;3777;48.722;8.110;2024-01-30T05:29:27;17.60;;;13.40;;
7471;SDS011;3777;48.722;8.110;2024-01-30T05:31:56;17.33;;;13.00;;
7471;SDS011;3777;48.722;8.110;2024-01-30T05:34:23;16.57;;;13.20;;
7471;SDS011;3777;48.722;8.110;2024-01-30T05:36:50;17.17;;;12.87;;
7471;SDS011;3777;48.722;8.110;2024-01-30T05:39:16;15.20;;;12.40;;
7471;SDS011;3777;48.722;8.110;2024-01-30T05:41:43;15.80;;;12.07;;
7471;SDS011;3777;48.722;8.110;2024-01-30T05:44:10;16.27;;;12.67;;
7471;SDS011;3777;48.722;8.110;2024-01-30T05:46:37;17.63;;;12.97;;
7471;SDS011;3777;48.722;8.110;2024-01-30T05:49:06;16.70;;;12.30;;
7471;SDS011;3777;48.722;8.110;2024-01-30T05:51:33;14.57;;;11.50;;
7471;SDS011;3777;48.722;8.110;2024-01-30T05:54:00;20.47;;;12.27;;
7471;SDS011;3777;48.722;8.110;2024-01-30T05:56:28;13.67;;;11.70;;
7471;SDS011;3777;48.722;8.110;2024-01-30T05:58:55;13.57;;;11.20;;
7471;SDS011;3777;48.722;8.110;2024-01-30T06:01:22;14.50;;;11.53;;
7471;SDS011;3777;48.722;8.110;2024-01-30T06:03:49;17.20;;;12.20;;
7471;SDS011;3777;48.722;8.110;2024-01-30T06:06:18;14.10;;;11.23;;
7471;SDS011;3777;48.722;8.110;2024-01-30T06:08:44;14.90;;;11.53;;
7471;SDS011;3777;48.722;8.110;2024-01-30T06:11:11;16.10;;;12.50;;
7471;SDS011;3777;48.722;8.110;2024-01-30T06:13:38;14.33;;;12.07;;
7471;SDS011;3777;48.722;8.110;2024-01-30T06:16:08;17.20;;;12.23;;
7471;SDS011;3777;48.722;8.110;2024-01-30T06:18:36;15.23;;;11.00;;
7471;SDS011;3777;48.722;8.110;2024-01-30T06:21:03;13.70;;;11.33;;
7471;SDS011;3777;48.722;8.110;2024-01-30T06:23:32;14.53;;;11.67;;
7471;SDS011;3777;48.722;8.110;2024-01-30T06:25:59;13.77;;;10.43;;
7471;SDS011;3777;48.722;8.110;2024-01-30T06:28:26;15.73;;;12.27;;
7471;SDS011;3777;48.722;8.110;2024-01-30T06:30:53;16.47;;;12.57;;
7471;SDS011;3777;48.722;8.110;2024-01-30T06:33:20;16.53;;;11.83;;
7471;SDS011;3777;48.722;8.110;2024-01-30T06:35:47;15.07;;;11.93;;
7471;SDS011;3777;48.722;8.110;2024-01-30T06:38:14;14.33;;;11.50;;
7471;SDS011;3777;48.722;8.110;2024-01-30T06:40:43;16.37;;;13.07;;
7471;SDS011;3777;48.722;8.110;2024-01-30T06:43:10;17.33;;;13.57;;
7471;SDS011;3777;48.722;8.110;2024-01-30T06:45:37;19.03;;;13.50;;
7471;SDS011;3777;48.722;8.110;2024-01-30T06:48:04;18.70;;;13.83;;
7471;SDS011;3777;48.722;8.110;2024-01-30T06:50:31;20.87;;;14.53;;
7471;SDS011;3777;48.722;8.110;2024-01-30T06:52:58;18.20;;;14.33;;
7471;SDS011;3777;48.722;8.110;2024-01-30T06:55:25;22.83;;;14.53;;
7471;SDS011;3777;48.722;8.110;2024-01-30T06:57:53;20.47;;;14.97;;
7471;SDS011;3777;48.722;8.110;2024-01-30T07:00:20;18.80;;;14.80;;
7471;SDS011;3777;48.722;8.110;2024-01-30T07:02:48;17.97;;;14.07;;
7471;SDS011;3777;48.722;8.110;2024-01-30T07:05:15;18.13;;;14.60;;
7471;SDS011;3777;48.722;8.110;2024-01-30T07:07:43;19.90;;;14.80;;
7471;SDS011;3777;48.722;8.110;2024-01-30T07:10:10;19.30;;;15.03;;
7471;SDS011;3777;48.722;8.110;2024-01-30T07:12:37;18.90;;;15.40;;
7471;SDS011;3777;48.722;8.110;2024-01-30T07:15:05;18.93;;;14.70;;
7471;SDS011;3777;48.722;8.110;2024-01-30T07:17:34;19.83;;;15.13;;
7471;SDS011;3777;48.722;8.110;2024-01-30T07:20:01;24.47;;;17.10;;
7471;SDS011;3777;48.722;8.110;2024-01-30T07:22:29;23.90;;;16.50;;
7471;SDS011;3777;48.722;8.110;2024-01-30T07:24:56;22.20;;;17.03;;
7471;SDS011;3777;48.722;8.110;2024-01-30T07:27:23;23.47;;;16.93;;
7471;SDS011;3777;48.722;8.110;2024-01-30T07:29:50;22.93;;;17.40;;
7471;SDS011;3777;48.722;8.110;2024-01-30T07:32:19;23.17;;;17.73;;
7471;SDS011;3777;48.722;8.110;2024-01-30T07:34:46;24.50;;;17.63;;
7471;SDS011;3777;48.722;8.110;2024-01-30T07:37:13;24.80;;;17.93;;
7471;SDS011;3777;48.722;8.110;2024-01-30T07:39:41;27.20;;;18.40;;
7471;SDS011;3777;48.722;8.110;2024-01-30T07:42:08;29.90;;;21.13;;
7471;SDS011;3777;48.722;8.110;2024-01-30T07:44:35;28.57;;;20.27;;
7471;SDS011;3777;48.722;8.110;2024-01-30T07:47:02;28.03;;;19.40;;
7471;SDS011;3777;48.722;8.110;2024-01-30T07:49:30;28.67;;;18.83;;
7471;SDS011;3777;48.722;8.110;2024-01-30T07:51:59;27.97;;;17.60;;
7471;SDS011;3777;48.722;8.110;2024-01-30T07:54:26;21.23;;;15.20;;
7471;SDS011;3777;48.722;8.110;2024-01-30T07:56:58;21.97;;;15.67;;
7471;SDS011;3777;48.722;8.110;2024-01-30T07:59:25;24.20;;;17.00;;
7471;SDS011;3777;48.722;8.110;2024-01-30T08:01:52;22.67;;;15.37;;
7471;SDS011;3777;48.722;8.110;2024-01-30T08:04:19;23.97;;;16.17;;
7471;SDS011;3777;48.722;8.110;2024-01-30T08:06:47;22.87;;;16.47;;
7471;SDS011;3777;48.722;8.110;2024-01-30T08:09:17;20.97;;;14.53;;
7471;SDS011;3777;48.722;8.110;2024-01-30T08:11:44;21.77;;;15.70;;
7471;SDS011;3777;48.722;8.110;2024-01-30T08:14:11;22.63;;;15.73;;
7471;SDS011;3777;48.722;8.110;2024-01-30T08:16:39;21.40;;;14.93;;
7471;SDS011;3777;48.722;8.110;2024-01-30T08:19:06;20.37;;;14.37;;
7471;SDS011;3777;48.722;8.110;2024-01-30T08:21:32;21.27;;;14.83;;
7471;SDS011;3777;48.722;8.110;2024-01-30T08:24:03;21.20;;;14.47;;
7471;SDS011;3777;48.722;8.110;2024-01-30T08:26:31;22.53;;;15.07;;
7471;SDS011;3777;48.722;8.110;2024-01-30T08:28:58;17.47;;;13.33;;
7471;SDS011;3777;48.722;8.110;2024-01-30T08:31:25;18.67;;;13.17;;
7471;SDS011;3777;48.722;8.110;2024-01-30T08:33:53;20.43;;;15.50;;
7471;SDS011;3777;48.722;8.110;2024-01-30T08:36:20;22.27;;;16.07;;
7471;SDS011;3777;48.722;8.110;2024-01-30T08:38:47;23.10;;;15.97;;
7471;SDS011;3777;48.722;8.110;2024-01-30T08:41:15;21.60;;;15.53;;
7471;SDS011;3777;48.722;8.110;2024-01-30T08:43:42;21.20;;;14.50;;
7471;SDS011;3777;48.722;8.110;2024-01-30T08:46:10;25.17;;;16.20;;
7471;SDS011;3777;48.722;8.110;2024-01-30T08:48:38;19.37;;;14.73;;
7471;SDS011;3777;48.722;8.110;2024-01-30T08:51:05;21.90;;;16.00;;
7471;SDS011;3777;48.722;8.110;2024-01-30T08:53:33;21.47;;;15.07;;
7471;SDS011;3777;48.722;8.110;2024-01-30T08:56:01;21.20;;;15.13;;
7471;SDS011;3777;48.722;8.110;2024-01-30T08:58:30;22.47;;;17.20;;
7471;SDS011;3777;48.722;8.110;2024-01-30T09:00:57;23.20;;;17.60;;
7471;SDS011;3777;48.722;8.110;2024-01-30T09:03:24;25.70;;;17.80;;
7471;SDS011;3777;48.722;8.110;2024-01-30T09:05:51;31.40;;;21.00;;
7471;SDS011;3777;48.722;8.110;2024-01-30T09:08:18;29.63;;;20.33;;
7471;SDS011;3777;48.722;8.110;2024-01-30T09:10:45;24.27;;;17.40;;
7471;SDS011;3777;48.722;8.110;2024-01-30T09:13:13;26.53;;;17.30;;
7471;SDS011;3777;48.722;8.110;2024-01-30T09:15:41;21.80;;;15.37;;
7471;SDS011;3777;48.722;8.110;2024-01-30T09:18:09;28.07;;;17.60;;
7471;SDS011;3777;48.722;8.110;2024-01-30T09:20:36;22.80;;;16.40;;
7471;SDS011;3777;48.722;8.110;2024-01-30T09:23:03;23.87;;;16.00;;
7471;SDS011;3777;48.722;8.110;2024-01-30T09:25:30;29.23;;;19.97;;
7471;SDS011;3777;48.722;8.110;2024-01-30T09:27:57;28.47;;;18.53;;
7471;SDS011;3777;48.722;8.110;2024-01-30T09:30:24;21.57;;;15.57;;
7471;SDS011;3777;48.722;8.110;2024-01-30T09:32:52;21.10;;;14.80;;
7471;SDS011;3777;48.722;8.110;2024-01-30T09:35:19;19.57;;;13.73;;
7471;SDS011;3777;48.722;8.110;2024-01-30T09:37:46;19.97;;;14.53;;
7471;SDS011;3777;48.722;8.110;2024-01-30T09:40:13;25.03;;;16.73;;
7471;SDS011;3777;48.722;8.110;2024-01-30T09:42:44;24.83;;;16.43;;
7471;SDS011;3777;48.722;8.110;2024-01-30T09:45:15;22.60;;;15.17;;
7471;SDS011;3777;48.722;8.110;2024-01-30T09:47:44;21.47;;;15.07;;
7471;SDS011;3777;48.722;8.110;2024-01-30T09:50:15;18.03;;;13.50;;
7471;SDS011;3777;48.722;8.110;2024-01-30T09:52:42;16.90;;;12.90;;
7471;SDS011;3777;48.722;8.110;2024-01-30T09:55:10;19.33;;;14.37;;
7471;SDS011;3777;48.722;8.110;2024-01-30T09:57:37;21.80;;;15.97;;
7471;SDS011;3777;48.722;8.110;2024-01-30T10:00:05;24.53;;;15.60;;
7471;SDS011;3777;48.722;8.110;2024-01-30T10:02:34;24.37;;;14.27;;
7471;SDS011;3777;48.722;8.110;2024-01-30T10:05:01;18.73;;;13.87;;
7471;SDS011;3777;48.722;8.110;2024-01-30T10:07:29;18.90;;;13.00;;
7471;SDS011;3777;48.722;8.110;2024-01-30T10:09:56;15.63;;;12.27;;
7471;SDS011;3777;48.722;8.110;2024-01-30T10:12:26;15.03;;;11.27;;
7471;SDS011;3777;48.722;8.110;2024-01-30T10:14:55;17.67;;;12.93;;
7471;SDS011;3777;48.722;8.110;2024-01-30T10:17:24;18.33;;;11.67;;
7471;SDS011;3777;48.722;8.110;2024-01-30T10:19:52;16.90;;;11.40;;
7471;SDS011;3777;48.722;8.110;2024-01-30T10:22:19;15.07;;;10.60;;
7471;SDS011;3777;48.722;8.110;2024-01-30T10:24:47;11.70;;;9.73;;
7471;SDS011;3777;48.722;8.110;2024-01-30T10:27:15;15.10;;;10.43;;
7471;SDS011;3777;48.722;8.110;2024-01-30T10:29:42;13.50;;;10.20;;
7471;SDS011;3777;48.722;8.110;2024-01-30T10:32:09;13.53;;;10.10;;
7471;SDS011;3777;48.722;8.110;2024-01-30T10:34:36;12.53;;;9.70;;
7471;SDS011;3777;48.722;8.110;2024-01-30T10:37:07;13.03;;;9.90;;
7471;SDS011;3777;48.722;8.110;2024-01-30T10:39:38;12.13;;;8.73;;
7471;SDS011;3777;48.722;8.110;2024-01-30T10:42:08;11.70;;;9.90;;
7471;SDS011;3777;48.722;8.110;2024-01-30T10:44:42;12.80;;;10.23;;
7471;SDS011;3777;48.722;8.110;2024-01-30T10:47:13;14.80;;;9.97;;
7471;SDS011;3777;48.722;8.110;2024-01-30T10:49:45;12.23;;;9.37;;
7471;SDS011;3777;48.722;8.110;2024-01-30T10:52:12;11.20;;;9.70;;
7471;SDS011;3777;48.722;8.110;2024-01-30T10:54:42;12.40;;;9.50;;
7471;SDS011;3777;48.722;8.110;2024-01-30T10:57:12;11.90;;;10.10;;
7471;SDS011;3777;48.722;8.110;2024-01-30T10:59:42;12.43;;;10.73;;
7471;SDS011;3777;48.722;8.110;2024-01-30T11:02:10;17.77;;;10.03;;
7471;SDS011;3777;48.722;8.110;2024-01-30T11:04:37;13.07;;;10.70;;
7471;SDS011;3777;48.722;8.110;2024-01-30T11:07:15;13.03;;;9.80;;
7471;SDS011;3777;48.722;8.110;2024-01-30T11:09:49;12.43;;;9.90;;
7471;SDS011;3777;48.722;8.110;2024-01-30T11:12:18;12.90;;;9.30;;
7471;SDS011;3777;48.722;8.110;2024-01-30T11:14:48;9.50;;;8.50;;
7471;SDS011;3777;48.722;8.110;2024-01-30T11:17:16;14.83;;;9.30;;
7471;SDS011;3777;48.722;8.110;2024-01-30T11:19:43;10.33;;;9.20;;
7471;SDS011;3777;48.722;8.110;2024-01-30T11:22:12;10.30;;;8.97;;
7471;SDS011;3777;48.722;8.110;2024-01-30T11:24:40;11.50;;;9.60;;
7471;SDS011;3777;48.722;8.110;2024-01-30T11:27:08;11.93;;;9.90;;
7471;SDS011;3777;48.722;8.110;2024-01-30T11:29:36;11.80;;;9.40;;
7471;SDS011;3777;48.722;8.110;2024-01-30T11:32:03;11.23;;;8.87;;
7471;SDS011;3777;48.722;8.110;2024-01-30T11:34:32;10.70;;;8.50;;
7471;SDS011;3777;48.722;8.110;2024-01-30T11:37:02;9.70;;;8.63;;
7471;SDS011;3777;48.722;8.110;2024-01-30T11:39:35;9.90;;;8.70;;
7471;SDS011;3777;48.722;8.110;2024-01-30T11:42:04;13.87;;;10.53;;
7471;SDS011;3777;48.722;8.110;2024-01-30T11:44:34;12.43;;;9.10;;
7471;SDS011;3777;48.722;8.110;2024-01-30T11:47:02;10.60;;;8.73;;
7471;SDS011;3777;48.722;8.110;2024-01-30T11:49:29;11.13;;;9.50;;
7471;SDS011;3777;48.722;8.110;2024-01-30T11:51:56;12.47;;;9.37;;
7471;SDS011;3777;48.722;8.110;2024-01-30T11:54:23;8.83;;;7.93;;
7471;SDS011;3777;48.722;8.110;2024-01-30T11:56:50;11.93;;;9.73;;
7471;SDS011;3777;48.722;8.110;2024-01-30T11:59:17;10.77;;;8.93;;
7471;SDS011;3777;48.722;8.110;2024-01-30T12:01:45;10.63;;;9.27;;
7471;SDS011;3777;48.722;8.110;2024-01-30T12:04:13;11.07;;;9.60;;
7471;SDS011;3777;48.722;8.110;2024-01-30T12:06:41;11.87;;;9.93;;
7471;SDS011;3777;48.722;8.110;2024-01-30T12:09:08;13.40;;;10.70;;
7471;SDS011;3777;48.722;8.110;2024-01-30T12:11:43;11.73;;;9.90;;
7471;SDS011;3777;48.722;8.110;2024-01-30T12:14:11;11.17;;;9.80;;
7471;SDS011;3777;48.722;8.110;2024-01-30T12:16:38;12.83;;;10.43;;
7471;SDS011;3777;48.722;8.110;2024-01-30T12:19:07;15.77;;;12.43;;
7471;SDS011;3777;48.722;8.110;2024-01-30T12:21:34;14.50;;;10.27;;
7471;SDS011;3777;48.722;8.110;2024-01-30T12:24:01;15.57;;;10.60;;
7471;SDS011;3777;48.722;8.110;2024-01-30T12:26:29;11.13;;;9.70;;
7471;SDS011;3777;48.722;8.110;2024-01-30T12:28:56;11.03;;;9.40;;
7471;SDS011;3777;48.722;8.110;2024-01-30T12:31:27;15.97;;;10.10;;
7471;SDS011;3777;48.722;8.110;2024-01-30T12:33:54;11.40;;;10.03;;
7471;SDS011;3777;48.722;8.110;2024-01-30T12:36:23;11.97;;;9.83;;
7471;SDS011;3777;48.722;8.110;2024-01-30T12:38:50;13.10;;;9.10;;
7471;SDS011;3777;48.722;8.110;2024-01-30T12:41:17;13.70;;;9.33;;
7471;SDS011;3777;48.722;8.110;2024-01-30T12:43:45;11.27;;;9.50;;
7471;SDS011;3777;48.722;8.110;2024-01-30T12:46:13;12.23;;;9.33;;
7471;SDS011;3777;48.722;8.110;2024-01-30T12:48:43;10.83;;;9.40;;
7471;SDS011;3777;48.722;8.110;2024-01-30T12:51:10;11.30;;;9.10;;
7471;SDS011;3777;48.722;8.110;2024-01-30T12:53:38;11.03;;;9.60;;
7471;SDS011;3777;48.722;8.110;2024-01-30T12:56:05;13.27;;;10.47;;
7471;SDS011;3777;48.722;8.110;2024-01-30T12:58:32;12.40;;;10.70;;
7471;SDS011;3777;48.722;8.110;2024-01-30T13:00:59;11.67;;;9.47;;
7471;SDS011;3777;48.722;8.110;2024-01-30T13:03:26;13.23;;;11.53;;
7471;SDS011;3777;48.722;8.110;2024-01-30T13:05:53;11.50;;;9.80;;
7471;SDS011;3777;48.722;8.110;2024-01-30T13:08:21;11.37;;;9.70;;
7471;SDS011;3777;48.722;8.110;2024-01-30T13:10:49;12.00;;;10.07;;
7471;SDS011;3777;48.722;8.110;2024-01-30T13:13:16;11.30;;;9.83;;
7471;SDS011;3777;48.722;8.110;2024-01-30T13:15:43;11.30;;;9.13;;
7471;SDS011;3777;48.722;8.110;2024-01-30T13:18:10;9.33;;;8.27;;
7471;SDS011;3777;48.722;8.110;2024-01-30T13:20:37;9.70;;;8.70;;
7471;SDS011;3777;48.722;8.110;2024-01-30T13:23:04;11.57;;;9.10;;
7471;SDS011;3777;48.722;8.110;2024-01-30T13:25:31;9.93;;;8.43;;
7471;SDS011;3777;48.722;8.110;2024-01-30T13:27:59;9.90;;;8.47;;
7471;SDS011;3777;48.722;8.110;2024-01-30T13:30:27;11.20;;;8.67;;
7471;SDS011;3777;48.722;8.110;2024-01-30T13:32:53;9.50;;;8.33;;
7471;SDS011;3777;48.722;8.110;2024-01-30T13:35:20;9.80;;;7.70;;
7471;SDS011;3777;48.722;8.110;2024-01-30T13:37:47;8.43;;;6.20;;
7471;SDS011;3777;48.722;8.110;2024-01-30T13:40:15;7.60;;;5.70;;
7471;SDS011;3777;48.722;8.110;2024-01-30T13:42:42;6.30;;;5.17;;
7471;SDS011;3777;48.722;8.110;2024-01-30T13:45:10;6.23;;;5.10;;
7471;SDS011;3777;48.722;8.110;2024-01-30T13:47:37;7.07;;;5.90;;
7471;SDS011;3777;48.722;8.110;2024-01-30T13:50:05;7.60;;;6.10;;
7471;SDS011;3777;48.722;8.110;2024-01-30T13:52:32;7.20;;;5.93;;
7471;SDS011;3777;48.722;8.110;2024-01-30T13:55:00;7.07;;;5.27;;
7471;SDS011;3777;48.722;8.110;2024-01-30T13:57:27;7.83;;;5.53;;
7471;SDS011;3777;48.722;8.110;2024-01-30T13:59:58;8.43;;;5.23;;
7471;SDS011;3777;48.722;8.110;2024-01-30T14:02:26;5.90;;;5.20;;
7471;SDS011;3777;48.722;8.110;2024-01-30T14:04:53;6.40;;;5.07;;
7471;SDS011;3777;48.722;8.110;2024-01-30T14:07:20;6.93;;;4.83;;
7471;SDS011;3777;48.722;8.110;2024-01-30T14:09:47;7.30;;;5.10;;
7471;SDS011;3777;48.722;8.110;2024-01-30T14:12:15;7.97;;;5.30;;
7471;SDS011;3777;48.722;8.110;2024-01-30T14:14:42;6.77;;;5.20;;
7471;SDS011;3777;48.722;8.110;2024-01-30T14:17:09;9.23;;;5.30;;
7471;SDS011;3777;48.722;8.110;2024-01-30T14:19:37;6.23;;;4.97;;
7471;SDS011;3777;48.722;8.110;2024-01-30T14:22:04;6.20;;;5.20;;
7471;SDS011;3777;48.722;8.110;2024-01-30T14:24:32;8.83;;;5.90;;
7471;SDS011;3777;48.722;8.110;2024-01-30T14:26:59;8.10;;;6.00;;
7471;SDS011;3777;48.722;8.110;2024-01-30T14:29:26;7.03;;;6.10;;
7471;SDS011;3777;48.722;8.110;2024-01-30T14:31:53;6.47;;;5.70;;
7471;SDS011;3777;48.722;8.110;2024-01-30T14:34:20;6.70;;;5.97;;
7471;SDS011;3777;48.722;8.110;2024-01-30T14:36:48;6.30;;;5.23;;
7471;SDS011;3777;48.722;8.110;2024-01-30T14:39:15;6.13;;;5.30;;
7471;SDS011;3777;48.722;8.110;2024-01-30T14:41:43;7.00;;;5.50;;
7471;SDS011;3777;48.722;8.110;2024-01-30T14:44:10;7.47;;;5.53;;
7471;SDS011;3777;48.722;8.110;2024-01-30T14:46:37;6.10;;;5.13;;
7471;SDS011;3777;48.722;8.110;2024-01-30T14:49:04;8.83;;;6.00;;
7471;SDS011;3777;48.722;8.110;2024-01-30T14:51:32;6.93;;;5.47;;
7471;SDS011;3777;48.722;8.110;2024-01-30T14:54:01;7.60;;;5.50;;